Time,TemperatureF,DewpointF,PressureIn,WindDirection,WindDirectionDegrees,WindSpeedMPH,WindSpeedGustMPH,Humidity,HourlyPrecipIn,Conditions,Clouds,dailyrainin,SolarRadiationWatts/m^2,SoftwareType,DateUTC
2013-01-03 00:00:00,39.1,37.7,30.14,NW,313,0.0,2.0,95,0.00,RA,,0.00,0.0,WeatherDisplay:10.37,2013-01-03 05:00:00,
2013-01-03 00:01:00,39.1,37.8,30.14,NW,313,0.0,0.0,95,0.00,RA,,0.00,0.0,WeatherDisplay:10.37,2013-01-03 05:01:00,
2013-01-03 00:02:00,39.1,37.8,30.14,NW,313,0.0,0.0,95,0.00,RA,,0.00,0.0,WeatherDisplay:10.37,2013-01-03 05:02:00,
2013-01-03 00:07:00,39.1,37.5,30.15,NW,313,0.0,0.0,94,0.00,RA,,0.00,0.0,WeatherDisplay:10.37,2013-01-03 05:07:00,
2013-01-03 00:12:00,39.2,37.9,30.15,NW,313,3.5,3.5,95,0.00,CLR,,0.00,0.0,WeatherDisplay:10.37,2013-01-03 05:12:00,
2013-01-03 00:17:00,39.2,37.9,30.15,NW,313,0.0,0.0,95,0.00,CLR,,0.00,0.0,WeatherDisplay:10.37,2013-01-03 05:17:00,
2013-01-03 00:22:00,39.1,37.8,30.16,NW,313,3.5,3.5,95,0.00,CLR,,0.00,0.0,WeatherDisplay:10.37,2013-01-03 05:22:00,
2013-01-03 00:28:00,39.0,37.7,30.15,NW,313,0.0,0.0,95,0.00,CLR,,0.00,0.0,WeatherDisplay:10.37,2013-01-03 05:28:00,
2013-01-03 00:33:00,38.9,37.3,30.15,NW,313,3.5,3.5,94,0.00,CLR,,0.00,0.0,WeatherDisplay:10.37,2013-01-03 05:33:00,
2013-01-03 00:38:00,38.9,37.0,30.16,NW,313,3.5,3.5,93,0.00,CLR,,0.00,0.0,WeatherDisplay:10.37,2013-01-03 05:38:00,
2013-01-03 00:43:00,38.9,35.9,30.16,NW,313,4.6,4.6,89,0.00,CLR,,0.00,0.0,WeatherDisplay:10.37,2013-01-03 05:43:00,
2013-01-03 00:48:00,39.4,34.7,30.15,NW,313,5.8,5.8,83,0.00,CLR,,0.00,0.0,WeatherDisplay:10.37,2013-01-03 05:48:00,
2013-01-03 00:53:00,39.8,36.8,30.15,NW,313,4.6,4.6,89,0.00,CLR,,0.00,0.0,WeatherDisplay:10.37,2013-01-03 05:53:00,
2013-01-03 00:59:00,39.9,34.9,30.16,NW,313,4.6,4.6,82,0.00,CLR,,0.00,0.0,WeatherDisplay:10.37,2013-01-03 05:59:00,
2013-01-03 01:04:00,40.2,36.1,30.16,NW,313,0.0,0.0,85,0.00,CLR,,0.00,0.0,WeatherDisplay:10.37,2013-01-03 06:04:00,
2013-01-03 01:09:00,40.2,36.6,30.16,NW,313,4.0,4.0,87,0.00,CLR,,0.00,0.0,WeatherDisplay:10.37,2013-01-03 06:09:00,
2013-01-03 01:14:00,40.1,35.0,30.15,NW,313,3.5,3.5,82,0.00,CLR,,0.00,0.0,WeatherDisplay:10.37,2013-01-03 06:14:00,
2013-01-03 01:19:00,40.0,34.3,30.15,NW,313,0.0,0.0,80,0.00,CLR,,0.00,0.0,WeatherDisplay:10.37,2013-01-03 06:19:00,
2013-01-03 01:25:00,40.2,36.1,30.15,NW,313,3.5,3.5,85,0.00,CLR,,0.00,0.0,WeatherDisplay:10.37,2013-01-03 06:25:00,
2013-01-03 01:30:00,40.2,36.3,30.15,NW,313,0.0,0.0,86,0.00,CLR,,0.00,0.0,WeatherDisplay:10.37,2013-01-03 06:30:00,
2013-01-03 01:35:00,40.1,36.2,30.15,NW,313,0.0,0.0,86,0.00,CLR,,0.00,0.0,WeatherDisplay:10.37,2013-01-03 06:35:00,
2013-01-03 01:40:00,39.9,34.5,30.15,NW,313,0.0,0.0,81,0.00,CLR,,0.00,0.0,WeatherDisplay:10.37,2013-01-03 06:40:00,
2013-01-03 01:45:00,39.9,34.2,30.15,NW,313,0.0,0.0,80,0.00,CLR,,0.00,0.0,WeatherDisplay:10.37,2013-01-03 06:45:00,
2013-01-03 01:51:00,39.9,36.1,30.16,NW,313,1.2,1.2,86,0.00,CLR,,0.00,0.0,WeatherDisplay:10.37,2013-01-03 06:51:00,
2013-01-03 01:56:00,39.8,36.0,30.15,NW,313,0.0,0.0,86,0.00,CLR,,0.00,0.0,WeatherDisplay:10.37,2013-01-03 06:56:00,
2013-01-03 02:01:00,39.7,35.9,30.15,NW,313,3.5,3.5,86,0.00,CLR,,0.00,0.0,WeatherDisplay:10.37,2013-01-03 07:01:00,
2013-01-03 02:06:00,39.6,36.0,30.15,NW,313,0.0,0.0,87,0.00,CLR,,0.00,0.0,WeatherDisplay:10.37,2013-01-03 07:06:00,
2013-01-03 02:12:00,39.5,36.0,30.15,NW,313,4.6,4.6,87,0.00,CLR,,0.00,0.0,WeatherDisplay:10.37,2013-01-03 07:12:00,
2013-01-03 02:17:00,39.4,36.1,30.15,NW,313,2.3,2.3,88,0.00,CLR,,0.00,0.0,WeatherDisplay:10.37,2013-01-03 07:17:00,
2013-01-03 02:22:00,39.3,36.0,30.15,NW,313,0.0,0.0,88,0.00,CLR,,0.00,0.0,WeatherDisplay:10.37,2013-01-03 07:22:00,
2013-01-03 02:27:00,39.2,36.2,30.16,NW,313,0.0,0.0,89,0.00,CLR,,0.00,0.0,WeatherDisplay:10.37,2013-01-03 07:27:00,
2013-01-03 02:33:00,39.0,36.3,30.15,NW,313,2.3,2.3,90,0.00,CLR,,0.00,0.0,WeatherDisplay:10.37,2013-01-03 07:33:00,
2013-01-03 02:38:00,38.9,35.9,30.15,NW,313,3.0,3.0,89,0.00,CLR,,0.00,0.0,WeatherDisplay:10.37,2013-01-03 07:38:00,
2013-01-03 02:43:00,38.9,36.2,30.15,NW,313,0.0,0.0,90,0.00,CLR,,0.00,0.0,WeatherDisplay:10.37,2013-01-03 07:43:00,
2013-01-03 02:48:00,38.8,35.8,30.15,NW,313,0.0,0.0,89,0.00,CLR,,0.00,0.0,WeatherDisplay:10.37,2013-01-03 07:48:00,
2013-01-03 02:53:00,38.8,35.8,30.15,NW,313,0.0,0.0,89,0.00,CLR,,0.00,0.0,WeatherDisplay:10.37,2013-01-03 07:53:00,
2013-01-03 02:59:00,38.7,36.3,30.16,NW,313,0.0,0.0,91,0.00,CLR,,0.00,0.0,WeatherDisplay:10.37,2013-01-03 07:59:00,
2013-01-03 03:04:00,38.7,36.6,30.15,NW,313,0.0,0.0,92,0.00,CLR,,0.00,0.0,WeatherDisplay:10.37,2013-01-03 08:04:00,
2013-01-03 03:09:00,38.7,36.6,30.15,NW,313,0.0,0.0,92,0.00,CLR,,0.00,0.0,WeatherDisplay:10.37,2013-01-03 08:09:00,
2013-01-03 03:14:00,38.6,36.5,30.16,NW,313,0.0,0.0,92,0.00,CLR,,0.00,0.0,WeatherDisplay:10.37,2013-01-03 08:14:00,
2013-01-03 03:20:00,38.5,36.4,30.17,NW,313,0.0,0.0,92,0.00,CLR,,0.00,0.0,WeatherDisplay:10.37,2013-01-03 08:20:00,
2013-01-03 03:25:00,38.4,36.6,30.17,NW,313,1.2,1.2,93,0.00,CLR,,0.00,0.0,WeatherDisplay:10.37,2013-01-03 08:25:00,
2013-01-03 03:30:00,38.3,36.5,30.16,NW,313,0.0,0.0,93,0.00,CLR,,0.00,0.0,WeatherDisplay:10.37,2013-01-03 08:30:00,
2013-01-03 03:35:00,38.2,36.4,30.14,NW,313,0.0,0.0,93,0.00,CLR,,0.00,0.0,WeatherDisplay:10.37,2013-01-03 08:35:00,
2013-01-03 03:40:00,38.2,36.4,30.15,NW,313,0.0,0.0,93,0.00,CLR,,0.00,0.0,WeatherDisplay:10.37,2013-01-03 08:40:00,
2013-01-03 03:45:00,38.2,36.4,30.17,NW,313,0.0,0.0,93,0.00,CLR,,0.00,0.0,WeatherDisplay:10.37,2013-01-03 08:45:00,
2013-01-03 03:51:00,38.0,36.4,30.17,NW,313,3.0,3.0,94,0.00,CLR,,0.00,0.0,WeatherDisplay:10.37,2013-01-03 08:51:00,
2013-01-03 03:56:00,38.0,36.4,30.17,NW,313,0.0,0.0,94,0.00,CLR,,0.00,0.0,WeatherDisplay:10.37,2013-01-03 08:56:00,
2013-01-03 04:04:00,37.9,36.3,30.17,NW,313,0.0,0.0,94,0.00,CLR,,0.00,0.0,WeatherDisplay:10.37,2013-01-03 09:04:00,
2013-01-03 04:09:00,37.9,36.3,30.17,NW,313,0.0,0.0,94,0.00,CLR,,0.00,0.0,WeatherDisplay:10.37,2013-01-03 09:09:00,
2013-01-03 04:15:00,37.9,36.3,30.16,NW,313,0.0,0.0,94,0.00,CLR,,0.00,0.0,WeatherDisplay:10.37,2013-01-03 09:15:00,
2013-01-03 04:20:00,37.9,36.3,30.16,NW,313,0.0,0.0,94,0.00,CLR,,0.00,0.0,WeatherDisplay:10.37,2013-01-03 09:20:00,
2013-01-03 04:25:00,37.8,36.2,30.15,NW,313,0.0,0.0,94,0.00,CLR,,0.00,0.0,WeatherDisplay:10.37,2013-01-03 09:25:00,
2013-01-03 04:30:00,37.8,36.2,30.16,NW,313,0.0,0.0,94,0.00,CLR,,0.00,0.0,WeatherDisplay:10.37,2013-01-03 09:30:00,
2013-01-03 04:35:00,37.7,36.1,30.16,NW,313,0.0,0.0,94,0.00,CLR,,0.00,0.0,WeatherDisplay:10.37,2013-01-03 09:35:00,
2013-01-03 04:40:00,37.6,36.0,30.17,NW,313,0.0,0.0,94,0.00,CLR,,0.00,0.0,WeatherDisplay:10.37,2013-01-03 09:40:00,
2013-01-03 04:45:00,37.5,35.9,30.17,NW,313,2.3,2.3,94,0.00,CLR,,0.00,0.0,WeatherDisplay:10.37,2013-01-03 09:45:00,
2013-01-03 04:50:00,37.4,35.8,30.17,NW,313,0.0,0.0,94,0.00,CLR,,0.00,0.0,WeatherDisplay:10.37,2013-01-03 09:50:00,
2013-01-03 04:56:00,37.4,36.1,30.18,NW,313,0.0,0.0,95,0.00,CLR,,0.00,0.0,WeatherDisplay:10.37,2013-01-03 09:56:00,
2013-01-03 05:01:00,37.3,36.0,30.18,NW,313,0.0,0.0,95,0.00,CLR,,0.00,0.0,WeatherDisplay:10.37,2013-01-03 10:01:00,
2013-01-03 05:06:00,37.3,36.0,30.17,NW,313,0.0,0.0,95,0.00,CLR,,0.00,0.0,WeatherDisplay:10.37,2013-01-03 10:06:00,
2013-01-03 05:11:00,37.3,36.0,30.17,NW,313,0.0,0.0,95,0.00,CLR,,0.00,0.0,WeatherDisplay:10.37,2013-01-03 10:11:00,
2013-01-03 05:17:00,37.3,36.0,30.17,NW,313,0.0,0.0,95,0.00,CLR,,0.00,0.0,WeatherDisplay:10.37,2013-01-03 10:17:00,
2013-01-03 05:22:00,37.3,36.0,30.17,NW,313,0.0,0.0,95,0.00,CLR,,0.00,0.0,WeatherDisplay:10.37,2013-01-03 10:22:00,
2013-01-03 05:27:00,37.2,35.9,30.17,NW,313,0.0,0.0,95,0.00,CLR,,0.00,0.0,WeatherDisplay:10.37,2013-01-03 10:27:00,
2013-01-03 05:32:00,37.2,35.9,30.16,NW,313,0.0,0.0,95,0.00,CLR,,0.00,0.0,WeatherDisplay:10.37,2013-01-03 10:32:00,
2013-01-03 05:37:00,37.2,35.9,30.17,NW,313,0.0,0.0,95,0.00,CLR,,0.00,0.0,WeatherDisplay:10.37,2013-01-03 10:37:00,
2013-01-03 05:42:00,37.1,35.8,30.17,NW,313,0.0,0.0,95,0.00,CLR,,0.00,0.0,WeatherDisplay:10.37,2013-01-03 10:42:00,
2013-01-03 05:48:00,37.0,35.7,30.17,NW,313,0.0,0.0,95,0.00,CLR,,0.00,0.0,WeatherDisplay:10.37,2013-01-03 10:48:00,
2013-01-03 05:53:00,36.9,35.6,30.18,NW,313,0.0,0.0,95,0.00,CLR,,0.00,0.0,WeatherDisplay:10.37,2013-01-03 10:53:00,
2013-01-03 05:58:00,36.9,35.6,30.18,NW,313,0.0,0.0,95,0.00,CLR,,0.00,0.0,WeatherDisplay:10.37,2013-01-03 10:58:00,
2013-01-03 06:03:00,36.8,35.5,30.18,NW,313,0.0,0.0,95,0.00,CLR,,0.00,0.0,WeatherDisplay:10.37,2013-01-03 11:03:00,
2013-01-03 06:08:00,36.8,35.5,30.18,NW,313,0.0,0.0,95,0.00,CLR,,0.00,0.0,WeatherDisplay:10.37,2013-01-03 11:08:00,
2013-01-03 06:14:00,36.8,35.5,30.18,NW,313,0.0,0.0,95,0.00,CLR,,0.00,0.0,WeatherDisplay:10.37,2013-01-03 11:14:00,
2013-01-03 06:19:00,36.7,35.4,30.18,NW,313,0.0,0.0,95,0.00,CLR,,0.00,0.0,WeatherDisplay:10.37,2013-01-03 11:19:00,
2013-01-03 06:24:00,36.7,35.4,30.18,NW,313,0.0,0.0,95,0.00,CLR,,0.00,0.0,WeatherDisplay:10.37,2013-01-03 11:24:00,
2013-01-03 06:29:00,36.6,35.3,30.18,NW,313,0.0,0.0,95,0.00,CLR,,0.00,0.0,WeatherDisplay:10.37,2013-01-03 11:29:00,
2013-01-03 06:35:00,36.6,35.6,30.18,NW,313,0.0,0.0,96,0.00,CLR,,0.00,0.0,WeatherDisplay:10.37,2013-01-03 11:35:00,
2013-01-03 06:40:00,36.5,35.5,30.18,NW,313,0.0,0.0,96,0.00,CLR,,0.00,0.0,WeatherDisplay:10.37,2013-01-03 11:40:00,
2013-01-03 06:45:00,36.4,35.4,30.17,NW,313,0.0,0.0,96,0.00,CLR,,0.00,0.0,WeatherDisplay:10.37,2013-01-03 11:45:00,
2013-01-03 06:50:00,36.4,35.1,30.18,NW,313,0.0,0.0,95,0.00,CLR,,0.00,0.0,WeatherDisplay:10.37,2013-01-03 11:50:00,
2013-01-03 06:55:00,36.3,35.3,30.18,NW,313,0.0,0.0,96,0.00,CLR,,0.00,0.0,WeatherDisplay:10.37,2013-01-03 11:55:00,
2013-01-03 07:00:00,36.2,35.2,30.19,NW,313,0.0,0.0,96,0.00,CLR,,0.00,0.0,WeatherDisplay:10.37,2013-01-03 12:00:00,
2013-01-03 07:06:00,36.2,35.2,30.18,NW,313,0.0,0.0,96,0.00,CLR,,0.00,0.0,WeatherDisplay:10.37,2013-01-03 12:06:00,
2013-01-03 07:11:00,36.2,35.2,30.18,NW,313,0.0,0.0,96,0.00,CLR,,0.00,0.0,WeatherDisplay:10.37,2013-01-03 12:11:00,
2013-01-03 07:16:00,36.1,35.1,30.18,NW,313,0.0,0.0,96,0.00,OVC,,0.00,0.0,WeatherDisplay:10.37,2013-01-03 12:16:00,
2013-01-03 07:21:00,36.0,35.0,30.18,NW,313,0.0,0.0,96,0.00,OVC,,0.00,0.0,WeatherDisplay:10.37,2013-01-03 12:21:00,
2013-01-03 07:26:00,36.0,35.0,30.18,NW,313,0.0,0.0,96,0.00,OVC,,0.00,0.0,WeatherDisplay:10.37,2013-01-03 12:26:00,
2013-01-03 07:31:00,35.9,34.9,30.19,NW,313,0.0,0.0,96,0.00,OVC,,0.00,0.0,WeatherDisplay:10.37,2013-01-03 12:31:00,
2013-01-03 07:36:00,35.8,34.8,30.19,NW,313,0.0,0.0,96,0.00,OVC,,0.00,0.0,WeatherDisplay:10.37,2013-01-03 12:36:00,
2013-01-03 07:42:00,35.7,34.7,30.19,NW,313,0.0,0.0,96,0.00,OVC,,0.00,0.0,WeatherDisplay:10.37,2013-01-03 12:42:00,
2013-01-03 07:47:00,35.7,34.7,30.19,NW,313,0.0,0.0,96,0.00,OVC,,0.00,0.0,WeatherDisplay:10.37,2013-01-03 12:47:00,
2013-01-03 07:52:00,35.7,34.7,30.19,NW,313,0.0,0.0,96,0.00,OVC,,0.00,0.0,WeatherDisplay:10.37,2013-01-03 12:52:00,
2013-01-03 07:57:00,35.6,34.6,30.20,NW,313,0.0,0.0,96,0.00,OVC,,0.00,5.0,WeatherDisplay:10.37,2013-01-03 12:57:00,
2013-01-03 08:02:00,35.7,34.7,30.19,NW,313,0.0,0.0,96,0.00,OVC,,0.00,11.0,WeatherDisplay:10.37,2013-01-03 13:02:00,
2013-01-03 08:07:00,35.7,34.7,30.20,NW,313,0.0,0.0,96,0.00,OVC,,0.00,16.0,WeatherDisplay:10.37,2013-01-03 13:07:00,
2013-01-03 08:13:00,35.8,34.8,30.19,NW,313,0.0,0.0,96,0.00,OVC,,0.00,25.0,WeatherDisplay:10.37,2013-01-03 13:13:00,
2013-01-03 08:18:00,35.9,34.9,30.19,NW,313,0.0,0.0,96,0.00,OVC,,0.00,32.0,WeatherDisplay:10.37,2013-01-03 13:18:00,
2013-01-03 08:23:00,35.9,35.1,30.19,NW,313,0.0,0.0,97,0.00,OVC,,0.00,33.0,WeatherDisplay:10.37,2013-01-03 13:23:00,
2013-01-03 08:28:00,36.0,35.2,30.20,NW,313,0.0,0.0,97,0.00,OVC,,0.00,37.0,WeatherDisplay:10.37,2013-01-03 13:28:00,
2013-01-03 08:33:00,36.2,35.4,30.20,NW,313,0.0,0.0,97,0.00,OVC,,0.00,46.0,WeatherDisplay:10.37,2013-01-03 13:33:00,
2013-01-03 08:38:00,36.4,35.6,30.20,NW,313,3.5,3.5,97,0.00,OVC,,0.00,56.0,WeatherDisplay:10.37,2013-01-03 13:38:00,
2013-01-03 08:44:00,36.4,35.6,30.20,NW,313,0.0,0.0,97,0.00,OVC,,0.00,63.0,WeatherDisplay:10.37,2013-01-03 13:44:00,
2013-01-03 08:49:00,36.4,35.6,30.19,NW,313,0.0,0.0,97,0.00,OVC,,0.00,65.0,WeatherDisplay:10.37,2013-01-03 13:49:00,
2013-01-03 08:54:00,36.4,35.6,30.20,NW,313,0.0,0.0,97,0.00,OVC,,0.00,60.0,WeatherDisplay:10.37,2013-01-03 13:54:00,
2013-01-03 08:59:00,36.5,35.7,30.21,NW,313,0.0,0.0,97,0.00,OVC,,0.00,53.0,WeatherDisplay:10.37,2013-01-03 13:59:00,
2013-01-03 09:04:00,36.6,35.8,30.20,NW,313,0.0,0.0,97,0.00,OVC,,0.00,62.0,WeatherDisplay:10.37,2013-01-03 14:04:00,
2013-01-03 09:09:00,36.7,35.9,30.20,NW,313,0.0,0.0,97,0.00,OVC,,0.00,60.0,WeatherDisplay:10.37,2013-01-03 14:09:00,
2013-01-03 09:15:00,36.8,36.0,30.21,NW,313,0.0,0.0,97,0.00,OVC,,0.00,51.0,WeatherDisplay:10.37,2013-01-03 14:15:00,
2013-01-03 09:20:00,36.9,36.1,30.20,NW,313,0.0,0.0,97,0.00,OVC,,0.00,51.0,WeatherDisplay:10.37,2013-01-03 14:20:00,
2013-01-03 09:25:00,37.0,36.2,30.22,NW,313,1.2,1.2,97,0.00,OVC,,0.00,56.0,WeatherDisplay:10.37,2013-01-03 14:25:00,
2013-01-03 09:30:00,37.1,36.3,30.22,NW,313,0.0,0.0,97,0.00,OVC,,0.00,56.0,WeatherDisplay:10.37,2013-01-03 14:30:00,
2013-01-03 09:35:00,37.1,36.1,30.22,NW,313,0.0,0.0,96,0.00,OVC,,0.00,65.0,WeatherDisplay:10.37,2013-01-03 14:35:00,
2013-01-03 09:40:00,37.2,36.2,30.22,NW,313,0.0,0.0,96,0.00,OVC,,0.00,74.0,WeatherDisplay:10.37,2013-01-03 14:40:00,
2013-01-03 09:45:00,37.3,36.3,30.22,NW,313,0.0,0.0,96,0.00,OVC,,0.00,84.0,WeatherDisplay:10.37,2013-01-03 14:45:00,
2013-01-03 09:51:00,37.4,36.4,30.22,NW,313,0.0,0.0,96,0.00,OVC,,0.00,116.0,WeatherDisplay:10.37,2013-01-03 14:51:00,
2013-01-03 09:56:00,37.6,36.6,30.23,NW,313,0.0,0.0,96,0.00,OVC,,0.00,120.0,WeatherDisplay:10.37,2013-01-03 14:56:00,
2013-01-03 10:01:00,37.7,36.4,30.23,NW,313,2.3,2.3,95,0.00,OVC,,0.00,120.0,WeatherDisplay:10.37,2013-01-03 15:01:00,
2013-01-03 10:06:00,37.9,36.3,30.23,NW,313,2.3,2.3,94,0.00,OVC,,0.00,132.0,WeatherDisplay:10.37,2013-01-03 15:06:00,
2013-01-03 10:11:00,38.1,36.5,30.23,NW,313,2.3,0.0,94,0.00,OVC,,0.00,141.0,WeatherDisplay:10.37,2013-01-03 15:11:00,
2013-01-03 10:16:00,38.3,36.5,30.23,NW,313,0.0,0.0,93,0.00,OVC,,0.00,156.0,WeatherDisplay:10.37,2013-01-03 15:16:00,
2013-01-03 10:22:00,38.5,36.7,30.23,NW,313,0.0,0.0,93,0.00,OVC,,0.00,144.0,WeatherDisplay:10.37,2013-01-03 15:22:00,
2013-01-03 10:27:00,38.7,36.6,30.24,NW,313,0.0,0.0,92,0.00,OVC,,0.00,151.0,WeatherDisplay:10.37,2013-01-03 15:27:00,
2013-01-03 10:32:00,39.0,36.6,30.24,NW,313,0.0,0.0,91,0.00,OVC,,0.00,167.0,WeatherDisplay:10.37,2013-01-03 15:32:00,
2013-01-03 10:37:00,39.2,36.5,30.24,NW,313,0.0,0.0,90,0.00,OVC,,0.00,204.0,WeatherDisplay:10.37,2013-01-03 15:37:00,
2013-01-03 10:42:00,39.5,36.8,30.24,NW,313,0.0,0.0,90,0.00,OVC,,0.00,206.0,WeatherDisplay:10.37,2013-01-03 15:42:00,
2013-01-03 10:48:00,39.8,36.8,30.25,NW,313,0.0,0.0,89,0.00,OVC,,0.00,185.0,WeatherDisplay:10.37,2013-01-03 15:48:00,
2013-01-03 10:53:00,40.1,36.8,30.24,NW,313,0.0,0.0,88,0.00,OVC,,0.00,211.0,WeatherDisplay:10.37,2013-01-03 15:53:00,
2013-01-03 10:58:00,40.4,36.5,30.24,NW,313,0.0,0.0,86,0.00,OVC,,0.00,225.0,WeatherDisplay:10.37,2013-01-03 15:58:00,
2013-01-03 11:03:00,40.6,36.1,30.24,NW,313,0.0,0.0,84,0.00,OVC,,0.00,239.0,WeatherDisplay:10.37,2013-01-03 16:03:00,
2013-01-03 11:09:00,40.9,36.7,30.24,NW,313,0.0,0.0,85,0.00,OVC,,0.00,239.0,WeatherDisplay:10.37,2013-01-03 16:09:00,
2013-01-03 11:14:00,41.2,36.1,30.24,NW,313,0.0,0.0,82,0.00,OVC,,0.00,213.0,WeatherDisplay:10.37,2013-01-03 16:14:00,
2013-01-03 11:19:00,41.4,36.0,30.24,NW,313,0.0,0.0,81,0.00,OVC,,0.00,258.0,WeatherDisplay:10.37,2013-01-03 16:19:00,
2013-01-03 11:24:00,41.6,35.9,30.24,NW,313,0.0,0.0,80,0.00,OVC,,0.00,251.0,WeatherDisplay:10.37,2013-01-03 16:24:00,
2013-01-03 11:29:00,41.9,36.2,30.24,NW,313,0.0,0.0,80,0.00,OVC,,0.00,285.0,WeatherDisplay:10.37,2013-01-03 16:29:00,
2013-01-03 11:34:00,42.2,36.5,30.24,NW,313,3.5,3.5,80,0.00,OVC,,0.00,279.0,WeatherDisplay:10.37,2013-01-03 16:34:00,
2013-01-03 11:39:00,42.4,36.3,30.24,NW,313,3.5,3.5,79,0.00,OVC,,0.00,253.0,WeatherDisplay:10.37,2013-01-03 16:39:00,
2013-01-03 11:45:00,42.4,35.7,30.25,NW,313,0.0,0.0,77,0.00,OVC,,0.00,276.0,WeatherDisplay:10.37,2013-01-03 16:45:00,
2013-01-03 11:50:00,42.5,35.8,30.25,NW,313,3.5,3.5,77,0.00,OVC,,0.00,253.0,WeatherDisplay:10.37,2013-01-03 16:50:00,
2013-01-03 11:55:00,42.7,36.3,30.24,NW,313,3.5,3.5,78,0.00,OVC,,0.00,229.0,WeatherDisplay:10.37,2013-01-03 16:55:00,
2013-01-03 12:00:00,42.8,35.8,30.24,NW,313,4.6,4.6,76,0.00,OVC,,0.00,292.0,WeatherDisplay:10.37,2013-01-03 17:00:00,
2013-01-03 12:06:00,42.9,35.9,30.24,NW,313,0.0,0.0,76,0.00,OVC,,0.00,304.0,WeatherDisplay:10.37,2013-01-03 17:06:00,
2013-01-03 12:11:00,43.2,35.8,30.24,NW,313,3.5,3.5,75,0.00,OVC,,0.00,285.0,WeatherDisplay:10.37,2013-01-03 17:11:00,
2013-01-03 12:16:00,43.4,36.3,30.24,NW,313,0.0,0.0,76,0.00,OVC,,0.00,288.0,WeatherDisplay:10.37,2013-01-03 17:16:00,
2013-01-03 12:21:00,43.5,36.4,30.23,NW,313,3.5,3.5,76,0.00,OVC,,0.00,339.0,WeatherDisplay:10.37,2013-01-03 17:21:00,
2013-01-03 12:26:00,43.7,36.0,30.23,NW,313,2.3,2.3,74,0.00,OVC,,0.00,341.0,WeatherDisplay:10.37,2013-01-03 17:26:00,
2013-01-03 12:32:00,44.0,35.9,30.23,NW,313,0.0,0.0,73,0.00,OVC,,0.00,352.0,WeatherDisplay:10.37,2013-01-03 17:32:00,
2013-01-03 12:37:00,44.1,34.2,30.22,NW,313,0.0,0.0,68,0.00,OVC,,0.00,292.0,WeatherDisplay:10.37,2013-01-03 17:37:00,
2013-01-03 12:42:00,44.2,34.3,30.22,NW,313,0.0,0.0,68,0.00,OVC,,0.00,279.0,WeatherDisplay:10.37,2013-01-03 17:42:00,
2013-01-03 12:47:00,44.4,35.2,30.22,NW,313,0.0,0.0,70,0.00,CLR,,0.00,274.0,WeatherDisplay:10.37,2013-01-03 17:47:00,
2013-01-03 12:52:00,44.6,34.7,30.22,NW,313,3.5,0.0,68,0.00,CLR,,0.00,271.0,WeatherDisplay:10.37,2013-01-03 17:52:00,
2013-01-03 12:57:00,44.7,34.4,30.21,NW,313,3.5,3.5,67,0.00,CLR,,0.00,301.0,WeatherDisplay:10.37,2013-01-03 17:57:00,
2013-01-03 13:03:00,44.8,33.7,30.21,NW,313,0.0,0.0,65,0.00,CLR,,0.00,366.0,WeatherDisplay:10.37,2013-01-03 18:03:00,
2013-01-03 13:08:00,45.0,34.3,30.21,NW,313,4.0,4.0,66,0.00,CLR,,0.00,304.0,WeatherDisplay:10.37,2013-01-03 18:08:00,
2013-01-03 13:13:00,45.1,33.2,30.21,NW,313,3.5,3.5,63,0.00,CLR,,0.00,373.0,WeatherDisplay:10.37,2013-01-03 18:13:00,
2013-01-03 13:18:00,45.3,34.6,30.21,NW,313,4.0,4.0,66,0.00,CLR,,0.00,383.0,WeatherDisplay:10.37,2013-01-03 18:18:00,
2013-01-03 13:23:00,45.5,34.0,30.21,NW,312,5.8,5.8,64,0.00,CLR,,0.00,367.0,WeatherDisplay:10.37,2013-01-03 18:23:00,
2013-01-03 13:28:00,45.8,33.9,30.22,NW,311,7.0,7.0,63,0.00,CLR,,0.00,497.0,WeatherDisplay:10.37,2013-01-03 18:28:00,
2013-01-03 13:33:00,46.1,35.4,30.21,NW,311,6.9,6.9,66,0.00,CLR,,0.00,385.0,WeatherDisplay:10.37,2013-01-03 18:33:00,
2013-01-03 13:38:00,46.1,33.4,30.21,WNW,284,10.4,10.4,61,0.00,CLR,,0.00,376.0,WeatherDisplay:10.37,2013-01-03 18:38:00,
2013-01-03 13:44:00,46.0,33.3,30.21,WNW,283,6.9,6.9,61,0.00,CLR,,0.00,302.0,WeatherDisplay:10.37,2013-01-03 18:44:00,
2013-01-03 13:49:00,46.0,32.5,30.21,WNW,282,6.9,6.9,59,0.00,CLR,,0.00,411.0,WeatherDisplay:10.37,2013-01-03 18:49:00,
2013-01-03 13:54:00,46.1,30.8,30.21,WNW,296,6.9,6.9,55,0.00,CLR,,0.00,313.0,WeatherDisplay:10.37,2013-01-03 18:54:00,
2013-01-03 13:59:00,45.9,29.7,30.22,NNW,327,11.5,11.5,53,0.00,CLR,,0.00,322.0,WeatherDisplay:10.37,2013-01-03 18:59:00,
2013-01-03 14:04:00,45.6,29.4,30.21,NNW,347,11.5,11.5,53,0.00,CLR,,0.00,322.0,WeatherDisplay:10.37,2013-01-03 19:04:00,
2013-01-03 14:09:00,45.2,29.5,30.21,NNW,331,11.5,11.5,54,0.00,CLR,,0.00,366.0,WeatherDisplay:10.37,2013-01-03 19:09:00,
2013-01-03 14:14:00,44.9,30.1,30.21,North,355,11.5,11.5,56,0.00,CLR,,0.00,250.0,WeatherDisplay:10.37,2013-01-03 19:14:00,
2013-01-03 14:51:00,44.3,29.6,30.23,NNW,345,16.1,16.1,56,0.00,CLR,,0.00,299.0,WeatherDisplay:10.37,2013-01-03 19:51:00,
2013-01-03 14:56:00,44.1,28.9,30.22,NNW,336,16.1,16.1,55,0.00,SCT,,0.00,209.0,WeatherDisplay:10.37,2013-01-03 19:56:00,
2013-01-03 15:02:00,43.9,27.9,30.22,NNW,344,14.0,14.0,53,0.00,SCT,,0.00,214.0,WeatherDisplay:10.37,2013-01-03 20:02:00,
2013-01-03 15:07:00,43.7,28.1,30.23,NNW,337,13.8,13.8,54,0.00,SCT,,0.00,200.0,WeatherDisplay:10.37,2013-01-03 20:07:00,
2013-01-03 15:12:00,43.5,27.9,30.24,NNW,337,16.1,16.1,54,0.00,SCT,,0.00,188.0,WeatherDisplay:10.37,2013-01-03 20:12:00,
2013-01-03 15:17:00,43.3,27.8,30.23,NNW,334,12.7,12.7,54,0.00,SCT,,0.00,197.0,WeatherDisplay:10.37,2013-01-03 20:17:00,
2013-01-03 15:22:00,43.2,29.0,30.24,NNW,343,11.0,11.0,57,0.00,SCT,,0.00,241.0,WeatherDisplay:10.37,2013-01-03 20:22:00,
2013-01-03 15:27:00,43.2,28.1,30.24,NNW,338,11.5,11.5,55,0.00,SCT,,0.00,236.0,WeatherDisplay:10.37,2013-01-03 20:27:00,
2013-01-03 15:32:00,43.3,29.5,30.24,NNW,336,7.0,7.0,58,0.00,BKN,,0.00,211.0,WeatherDisplay:10.37,2013-01-03 20:32:00,
2013-01-03 15:37:00,43.3,29.1,30.24,NNW,334,9.2,9.2,57,0.00,SCT,,0.00,257.0,WeatherDisplay:10.37,2013-01-03 20:37:00,
2013-01-03 15:42:00,43.4,28.3,30.24,NNW,334,10.4,10.4,55,0.00,BKN,,0.00,186.0,WeatherDisplay:10.37,2013-01-03 20:42:00,
2013-01-03 15:47:00,43.4,28.7,30.24,NNW,334,6.9,6.9,56,0.00,BKN,,0.00,195.0,WeatherDisplay:10.37,2013-01-03 20:47:00,
2013-01-03 15:52:00,43.4,27.4,30.25,NNW,334,5.8,5.8,53,0.00,OVC,,0.00,141.0,WeatherDisplay:10.37,2013-01-03 20:52:00,
2013-01-03 15:57:00,43.3,29.5,30.24,NNW,334,4.6,4.6,58,0.00,OVC,,0.00,148.0,WeatherDisplay:10.37,2013-01-03 20:57:00,
2013-01-03 16:03:00,43.2,29.8,30.25,NW,325,5.8,5.8,59,0.00,OVC,,0.00,148.0,WeatherDisplay:10.37,2013-01-03 21:03:00,
2013-01-03 16:08:00,43.0,29.6,30.25,NW,325,9.2,9.2,59,0.00,BKN,,0.00,183.0,WeatherDisplay:10.37,2013-01-03 21:08:00,
2013-01-03 16:13:00,42.8,29.5,30.25,NW,323,9.2,9.2,59,0.00,SCT,,0.00,251.0,WeatherDisplay:10.37,2013-01-03 21:13:00,
2013-01-03 16:18:00,43.0,30.1,30.25,NNW,341,10.4,10.4,60,0.00,BKN,,0.00,227.0,WeatherDisplay:10.37,2013-01-03 21:18:00,
2013-01-03 16:24:00,42.9,30.0,30.26,NNW,335,9.2,9.2,60,0.00,BKN,,0.00,204.0,WeatherDisplay:10.37,2013-01-03 21:24:00,
2013-01-03 16:29:00,42.9,30.0,30.26,NW,324,4.0,4.0,60,0.00,BKN,,0.00,186.0,WeatherDisplay:10.37,2013-01-03 21:29:00,
2013-01-03 16:34:00,42.9,30.0,30.27,NW,324,6.9,6.9,60,0.00,OVC,,0.00,171.0,WeatherDisplay:10.37,2013-01-03 21:34:00,
2013-01-03 16:39:00,42.8,29.9,30.27,NW,316,9.2,9.2,60,0.00,OVC,,0.00,155.0,WeatherDisplay:10.37,2013-01-03 21:39:00,
2013-01-03 16:45:00,42.5,29.6,30.27,NNW,327,11.5,11.5,60,0.00,OVC,,0.00,137.0,WeatherDisplay:10.37,2013-01-03 21:45:00,
2013-01-03 16:50:00,42.2,28.5,30.27,NNW,337,10.4,10.4,58,0.00,OVC,,0.00,127.0,WeatherDisplay:10.37,2013-01-03 21:50:00,
2013-01-03 16:55:00,42.1,28.4,30.28,NNW,331,10.4,10.4,58,0.00,OVC,,0.00,111.0,WeatherDisplay:10.37,2013-01-03 21:55:00,
2013-01-03 17:00:00,41.9,28.6,30.28,NNW,348,10.4,10.4,59,0.00,OVC,,0.00,95.0,WeatherDisplay:10.37,2013-01-03 22:00:00,
2013-01-03 17:05:00,41.8,28.1,30.28,North,355,11.5,11.5,58,0.00,OVC,,0.00,79.0,WeatherDisplay:10.37,2013-01-03 22:05:00,
2013-01-03 17:10:00,41.7,27.6,30.28,NNW,345,12.0,12.0,57,0.00,OVC,,0.00,63.0,WeatherDisplay:10.37,2013-01-03 22:10:00,
2013-01-03 17:15:00,41.4,28.1,30.28,NNW,346,13.8,13.8,59,0.00,OVC,,0.00,47.0,WeatherDisplay:10.37,2013-01-03 22:15:00,
2013-01-03 17:20:00,41.1,28.2,30.28,North,357,6.0,14.0,60,0.00,OVC,,0.00,35.0,WeatherDisplay:10.37,2013-01-03 22:20:00,
2013-01-03 17:25:00,40.6,29.0,30.28,NNW,346,10.4,10.4,63,0.00,OVC,,0.00,16.0,WeatherDisplay:10.37,2013-01-03 22:25:00,
2013-01-03 17:30:00,40.2,28.6,30.29,North,360,9.2,9.2,63,0.00,OVC,,0.00,11.0,WeatherDisplay:10.37,2013-01-03 22:30:00,
2013-01-03 17:35:00,40.0,28.8,30.28,North,5,4.6,4.6,64,0.00,OVC,,0.00,7.0,WeatherDisplay:10.37,2013-01-03 22:35:00,
2013-01-03 17:41:00,39.8,29.0,30.28,North,5,8.1,8.1,65,0.00,OVC,,0.00,0.0,WeatherDisplay:10.37,2013-01-03 22:41:00,
2013-01-03 17:46:00,39.5,28.7,30.28,North,355,9.2,9.2,65,0.00,OVC,,0.00,0.0,WeatherDisplay:10.37,2013-01-03 22:46:00,
2013-01-03 17:51:00,39.3,28.5,30.29,NNW,345,9.0,9.0,65,0.00,OVC,,0.00,0.0,WeatherDisplay:10.37,2013-01-03 22:51:00,
2013-01-03 17:56:00,39.1,28.3,30.29,NNW,345,4.6,4.6,65,0.00,OVC,,0.00,0.0,WeatherDisplay:10.37,2013-01-03 22:56:00,
2013-01-03 18:01:00,38.9,28.1,30.30,NNW,345,5.0,5.0,65,0.00,CLR,,0.00,0.0,WeatherDisplay:10.37,2013-01-03 23:01:00,
2013-01-03 18:06:00,38.7,28.7,30.30,NNW,345,6.9,6.9,67,0.00,CLR,,0.00,0.0,WeatherDisplay:10.37,2013-01-03 23:06:00,
2013-01-03 18:11:00,38.5,28.5,30.31,NNW,345,6.9,6.9,67,0.00,CLR,,0.00,0.0,WeatherDisplay:10.37,2013-01-03 23:11:00,
2013-01-03 18:17:00,38.2,28.6,30.31,NNW,344,9.2,9.2,68,0.00,CLR,,0.00,0.0,WeatherDisplay:10.37,2013-01-03 23:17:00,
2013-01-03 18:22:00,38.0,28.7,30.30,NNW,344,3.5,3.5,69,0.00,CLR,,0.00,0.0,WeatherDisplay:10.37,2013-01-03 23:22:00,
2013-01-03 18:27:00,37.8,28.5,30.31,NNW,344,3.5,3.5,69,0.00,CLR,,0.00,0.0,WeatherDisplay:10.37,2013-01-03 23:27:00,
2013-01-03 18:32:00,37.7,28.8,30.31,NNW,337,6.9,6.9,70,0.00,CLR,,0.00,0.0,WeatherDisplay:10.37,2013-01-03 23:32:00,
2013-01-03 18:37:00,37.7,28.4,30.31,NNW,335,10.4,10.4,69,0.00,CLR,,0.00,0.0,WeatherDisplay:10.37,2013-01-03 23:37:00,
2013-01-03 18:43:00,37.6,28.3,30.31,NNW,344,4.6,4.6,69,0.00,CLR,,0.00,0.0,WeatherDisplay:10.37,2013-01-03 23:43:00,
2013-01-03 18:48:00,37.5,28.2,30.31,NNW,344,3.5,3.5,69,0.00,CLR,,0.00,0.0,WeatherDisplay:10.37,2013-01-03 23:48:00,
2013-01-03 18:53:00,37.1,28.2,30.32,NNW,343,6.0,6.0,70,0.00,CLR,,0.00,0.0,WeatherDisplay:10.37,2013-01-03 23:53:00,
2013-01-03 18:58:00,36.9,28.0,30.32,NNW,344,10.4,10.4,70,0.00,CLR,,0.00,0.0,WeatherDisplay:10.37,2013-01-03 23:58:00,
2013-01-03 19:03:00,36.8,28.3,30.32,NNW,340,9.2,9.2,71,0.00,CLR,,0.00,0.0,WeatherDisplay:10.37,2013-01-04 00:03:00,
2013-01-03 19:08:00,36.7,28.2,30.32,NNW,341,3.5,3.5,71,0.00,CLR,,0.00,0.0,WeatherDisplay:10.37,2013-01-04 00:08:00,
2013-01-03 19:14:00,36.6,28.4,30.32,NNW,336,8.1,8.1,72,0.00,CLR,,0.00,0.0,WeatherDisplay:10.37,2013-01-04 00:14:00,
2013-01-03 19:19:00,36.5,29.7,30.32,NNW,336,3.5,3.5,76,0.00,CLR,,0.00,0.0,WeatherDisplay:10.37,2013-01-04 00:19:00,
2013-01-03 19:24:00,36.4,28.2,30.32,NNW,336,5.8,5.8,72,0.00,CLR,,0.00,0.0,WeatherDisplay:10.37,2013-01-04 00:24:00,
2013-01-03 19:29:00,36.3,28.1,30.33,NNW,336,6.9,6.9,72,0.00,CLR,,0.00,0.0,WeatherDisplay:10.37,2013-01-04 00:29:00,
2013-01-03 19:34:00,36.2,28.4,30.32,NNW,336,5.8,5.8,73,0.00,CLR,,0.00,0.0,WeatherDisplay:10.37,2013-01-04 00:34:00,
2013-01-03 19:40:00,36.2,27.7,30.32,NNW,336,6.9,6.9,71,0.00,CLR,,0.00,0.0,WeatherDisplay:10.37,2013-01-04 00:40:00,
2013-01-03 19:45:00,36.2,28.0,30.32,NNW,336,3.5,3.5,72,0.00,CLR,,0.00,0.0,WeatherDisplay:10.37,2013-01-04 00:45:00,
2013-01-03 19:50:00,36.1,27.9,30.33,NNW,336,3.5,3.5,72,0.00,CLR,,0.00,0.0,WeatherDisplay:10.37,2013-01-04 00:50:00,
2013-01-03 19:55:00,35.9,27.7,30.33,NNW,336,4.6,4.6,72,0.00,CLR,,0.00,0.0,WeatherDisplay:10.37,2013-01-04 00:55:00,
2013-01-03 20:00:00,35.7,27.6,30.33,NNW,336,0.0,5.0,72,0.00,CLR,,0.00,0.0,WeatherDisplay:10.37,2013-01-04 01:00:00,
2013-01-03 20:05:00,35.5,27.7,30.33,NNW,336,0.0,0.0,73,0.00,CLR,,0.00,0.0,WeatherDisplay:10.37,2013-01-04 01:05:00,
2013-01-03 20:10:00,35.3,27.5,30.33,NNW,343,5.8,5.8,73,0.00,CLR,,0.00,0.0,WeatherDisplay:10.37,2013-01-04 01:10:00,
2013-01-03 20:15:00,35.3,26.8,30.34,NNW,343,5.8,5.8,71,0.00,CLR,,0.00,0.0,WeatherDisplay:10.37,2013-01-04 01:15:00,
2013-01-03 20:20:00,35.4,26.2,30.33,NE,47,9.0,9.0,69,0.00,CLR,,0.00,0.0,WeatherDisplay:10.37,2013-01-04 01:20:00,
2013-01-03 20:26:00,35.9,26.4,30.33,NE,52,5.0,5.0,68,0.00,CLR,,0.00,0.0,WeatherDisplay:10.37,2013-01-04 01:26:00,
2013-01-03 20:31:00,35.9,26.4,30.33,NE,48,8.1,8.1,68,0.00,CLR,,0.00,0.0,WeatherDisplay:10.37,2013-01-04 01:31:00,
2013-01-03 20:36:00,36.0,26.5,30.33,NE,34,11.5,11.5,68,0.00,CLR,,0.00,0.0,WeatherDisplay:10.37,2013-01-04 01:36:00,
2013-01-03 20:41:00,36.4,26.5,30.33,NNE,26,16.0,16.0,67,0.00,CLR,,0.00,0.0,WeatherDisplay:10.37,2013-01-04 01:41:00,
2013-01-03 20:46:00,36.6,26.7,30.33,NNE,16,9.0,9.0,67,0.00,CLR,,0.00,0.0,WeatherDisplay:10.37,2013-01-04 01:46:00,
2013-01-03 20:51:00,36.7,26.4,30.33,NE,36,11.5,11.5,66,0.00,CLR,,0.00,0.0,WeatherDisplay:10.37,2013-01-04 01:51:00,
2013-01-03 20:57:00,36.6,26.3,30.33,North,5,10.4,10.4,66,0.00,CLR,,0.00,0.0,WeatherDisplay:10.37,2013-01-04 01:57:00,
2013-01-03 21:02:00,36.3,26.7,30.33,North,5,11.5,11.5,68,0.00,CLR,,0.00,0.0,WeatherDisplay:10.37,2013-01-04 02:02:00,
2013-01-03 21:07:00,36.1,26.2,30.33,North,5,11.5,11.5,67,0.00,CLR,,0.00,0.0,WeatherDisplay:10.37,2013-01-04 02:07:00,
2013-01-03 21:12:00,36.1,26.2,30.33,NNW,348,14.0,14.0,67,0.00,CLR,,0.00,0.0,WeatherDisplay:10.37,2013-01-04 02:12:00,
2013-01-03 21:17:00,36.3,26.4,30.33,ENE,61,16.1,16.1,67,0.00,CLR,,0.00,0.0,WeatherDisplay:10.37,2013-01-04 02:17:00,
2013-01-03 21:23:00,36.7,26.8,30.33,NNE,22,12.7,12.7,67,0.00,CLR,,0.00,0.0,WeatherDisplay:10.37,2013-01-04 02:23:00,
2013-01-03 21:28:00,36.9,26.6,30.33,North,355,11.5,11.5,66,0.00,CLR,,0.00,0.0,WeatherDisplay:10.37,2013-01-04 02:28:00,
2013-01-03 21:33:00,36.9,27.0,30.33,North,10,7.0,7.0,67,0.00,CLR,,0.00,0.0,WeatherDisplay:10.37,2013-01-04 02:33:00,
2013-01-03 21:38:00,36.9,27.0,30.33,NNE,21,11.5,11.5,67,0.00,CLR,,0.00,0.0,WeatherDisplay:10.37,2013-01-04 02:38:00,
2013-01-03 21:43:00,36.9,27.3,30.33,ENE,61,4.6,4.6,68,0.00,CLR,,0.00,0.0,WeatherDisplay:10.37,2013-01-04 02:43:00,
2013-01-03 21:49:00,36.7,27.1,30.33,ENE,61,6.0,6.0,68,0.00,CLR,,0.00,0.0,WeatherDisplay:10.37,2013-01-04 02:49:00,
2013-01-03 21:54:00,36.7,27.1,30.33,NE,35,9.2,9.2,68,0.00,CLR,,0.00,0.0,WeatherDisplay:10.37,2013-01-04 02:54:00,
2013-01-03 21:59:00,36.7,27.1,30.33,North,355,5.8,5.8,68,0.00,CLR,,0.00,0.0,WeatherDisplay:10.37,2013-01-04 02:59:00,
2013-01-03 22:04:00,36.6,27.4,30.33,North,355,3.5,3.5,69,0.00,CLR,,0.00,0.0,WeatherDisplay:10.37,2013-01-04 03:04:00,
2013-01-03 22:09:00,36.4,27.2,30.34,North,355,0.0,0.0,69,0.00,CLR,,0.00,0.0,WeatherDisplay:10.37,2013-01-04 03:09:00,
2013-01-03 22:15:00,36.3,27.1,30.33,North,355,3.5,3.5,69,0.00,CLR,,0.00,0.0,WeatherDisplay:10.37,2013-01-04 03:15:00,
2013-01-03 22:20:00,36.2,27.4,30.34,North,355,3.5,3.5,70,0.00,CLR,,0.00,0.0,WeatherDisplay:10.37,2013-01-04 03:20:00,
2013-01-03 22:25:00,36.0,27.2,30.35,North,355,0.0,0.0,70,0.00,CLR,,0.00,0.0,WeatherDisplay:10.37,2013-01-04 03:25:00,
2013-01-03 22:30:00,35.9,27.1,30.35,North,355,0.0,1.0,70,0.00,CLR,,0.00,0.0,WeatherDisplay:10.37,2013-01-04 03:30:00,
2013-01-03 22:35:00,35.6,26.8,30.36,North,355,0.0,0.0,70,0.00,CLR,,0.00,0.0,WeatherDisplay:10.37,2013-01-04 03:35:00,
2013-01-03 22:41:00,35.1,27.0,30.36,North,355,0.0,0.0,72,0.00,CLR,,0.00,0.0,WeatherDisplay:10.37,2013-01-04 03:41:00,
2013-01-03 22:46:00,34.2,27.1,30.36,North,355,0.0,0.0,75,0.00,CLR,,0.00,0.0,WeatherDisplay:10.37,2013-01-04 03:46:00,
2013-01-03 22:51:00,33.7,26.6,30.37,North,355,0.0,0.0,75,0.00,CLR,,0.00,0.0,WeatherDisplay:10.37,2013-01-04 03:51:00,
2013-01-03 22:56:00,33.4,26.6,30.37,North,355,0.0,0.0,76,0.00,CLR,,0.00,0.0,WeatherDisplay:10.37,2013-01-04 03:56:00,
2013-01-03 23:02:00,32.7,26.6,30.38,North,355,2.0,2.0,78,0.00,CLR,,0.00,0.0,WeatherDisplay:10.37,2013-01-04 04:02:00,
2013-01-03 23:07:00,32.2,26.4,30.38,North,355,0.0,0.0,79,0.00,CLR,,0.00,0.0,WeatherDisplay:10.37,2013-01-04 04:07:00,
2013-01-03 23:12:00,32.2,26.1,30.37,North,355,0.0,0.0,78,0.00,CLR,,0.00,0.0,WeatherDisplay:10.37,2013-01-04 04:12:00,
2013-01-03 23:17:00,32.3,26.2,30.38,North,355,3.5,3.5,78,0.00,CLR,,0.00,0.0,WeatherDisplay:10.37,2013-01-04 04:17:00,
2013-01-03 23:22:00,32.4,26.6,30.37,North,355,0.0,0.0,79,0.00,CLR,,0.00,0.0,WeatherDisplay:10.37,2013-01-04 04:22:00,
2013-01-03 23:27:00,31.9,26.4,30.38,North,355,0.0,0.0,80,0.00,CLR,,0.00,0.0,WeatherDisplay:10.37,2013-01-04 04:27:00,
2013-01-03 23:33:00,31.5,26.3,30.38,North,355,0.0,0.0,81,0.00,CLR,,0.00,0.0,WeatherDisplay:10.37,2013-01-04 04:33:00,
2013-01-03 23:38:00,31.0,26.1,30.38,North,355,3.5,3.5,82,0.00,CLR,,0.00,0.0,WeatherDisplay:10.37,2013-01-04 04:38:00,
2013-01-03 23:43:00,30.8,26.0,30.38,North,355,4.6,4.6,82,0.00,CLR,,0.00,0.0,WeatherDisplay:10.37,2013-01-04 04:43:00,
2013-01-03 23:48:00,31.1,26.2,30.38,North,355,0.0,0.0,82,0.00,CLR,,0.00,0.0,WeatherDisplay:10.37,2013-01-04 04:48:00,
2013-01-03 23:53:00,31.2,26.3,30.38,North,355,0.0,0.0,82,0.00,CLR,,0.00,0.0,WeatherDisplay:10.37,2013-01-04 04:53:00,
2013-01-03 23:58:00,31.3,26.4,30.38,North,355,0.0,0.0,82,0.00,CLR,,0.00,0.0,WeatherDisplay:10.37,2013-01-04 04:58:00,